Time;durP1;ratioP1;P1;durP2;ratioP2;P2;SDS_P1;SDS_P2;PMS_P1;PMS_P2;Temp;Humidity;BMP_temperature;BMP_pressure;BME280_temperature;BME280_humidity;BME280_pressure;Samples;Min_cycle;Max_cycle;Signal;HPM_P1;HPM_P2
2023/04/28 00:01:14;;;;;;;;;;;230.70;2252.80;;;;;;5033658;28;20529;-70
2023/04/28 00:03:40;;;;;;;51.47;24.15;;;230.70;2252.80;;;;;;5033310;28;19982;-71
2023/04/28 00:06:06;;;;;;;;;;;230.70;2252.80;;;;;;5033593;28;20041;-71
2023/04/28 00:08:32;;;;;;;22.25;12.45;;;230.70;2252.80;;;;;;5033344;28;19912;-71
2023/04/28 00:10:57;;;;;;;;;;;230.70;2252.80;;;;;;5033670;28;20033;-71
2023/04/28 00:13:23;;;;;;;18.60;11.38;;;230.70;2252.80;;;;;;5033106;28;19920;-71
2023/04/28 00:15:51;;;;;;;20.35;11.10;;;230.70;2252.80;;;;;;5036755;28;20385;-71
2023/04/28 00:18:17;;;;;;;25.10;12.93;;;230.60;2252.80;;;;;;5037240;28;20017;-71
2023/04/28 00:20:43;;;;;;;23.00;12.70;;;230.50;2252.80;;;;;;5037152;28;20045;-73
2023/04/28 00:23:09;;;;;;;26.95;14.05;;;230.60;2252.80;;;;;;5037052;28;20081;-70
2023/04/28 00:25:34;;;;;;;;;;;230.60;2252.80;;;;;;5037491;28;20021;-71
2023/04/28 00:28:00;;;;;;;24.08;12.18;;;230.70;2252.80;;;;;;5036947;28;19912;-71
2023/04/28 00:30:26;;;;;;;;;;;230.80;2252.80;;;;;;5037168;28;20032;-71
2023/04/28 00:32:52;;;;;;;26.52;13.48;;;230.80;2252.80;;;;;;5036881;28;19959;-70
2023/04/28 00:35:18;;;;;;;26.90;14.90;;;230.80;2252.80;;;;;;5036891;28;20076;-71
2023/04/28 00:37:43;;;;;;;30.80;16.02;;;230.70;2252.80;;;;;;5036864;28;20021;-71
2023/04/28 00:40:10;;;;;;;27.98;14.95;;;230.60;2252.80;;;;;;5036758;28;20083;-70
2023/04/28 00:42:35;;;;;;;32.13;15.63;;;230.70;2252.80;;;;;;5036733;28;20021;-71
2023/04/28 00:45:06;;;;;;;29.10;14.20;;;230.60;2252.80;;;;;;5036434;28;20041;-70
2023/04/28 00:47:36;;;;;;;61.53;24.80;;;230.60;2252.80;;;;;;5036570;28;20014;-71
2023/04/28 00:50:04;;;;;;;88.50;37.50;;;230.70;2252.80;;;;;;5036505;28;20064;-71
2023/04/28 00:52:30;;;;;;;111.72;46.13;;;230.70;2252.80;;;;;;5036223;28;20060;-72
2023/04/28 00:54:56;;;;;;;131.80;50.63;;;230.70;2252.80;;;;;;5036308;28;20048;-77
2023/04/28 00:57:22;;;;;;;84.57;34.92;;;230.60;2252.80;;;;;;5036342;28;20049;-71
2023/04/28 00:59:48;;;;;;;49.40;22.85;;;230.50;2252.80;;;;;;5036259;28;20484;-71
2023/04/28 01:02:16;;;;;;;52.65;22.23;;;230.40;2252.80;;;;;;5036308;28;20040;-71
2023/04/28 01:04:45;;;;;;;42.45;19.50;;;230.40;2252.80;;;;;;5036354;28;20049;-71
2023/04/28 01:07:11;;;;;;;33.92;16.10;;;230.50;2252.80;;;;;;5036103;28;20021;-70
2023/04/28 01:09:37;;;;;;;31.40;15.88;;;230.60;2252.80;;;;;;5034497;28;20095;-71
2023/04/28 01:12:02;;;;;;;;;;;230.60;2252.80;;;;;;5036332;28;20026;-71
2023/04/28 01:14:28;;;;;;;36.08;16.60;;;230.50;2252.80;;;;;;5035787;28;20428;-71
2023/04/28 01:16:54;;;;;;;;;;;230.60;2252.80;;;;;;5036515;28;20373;-70
2023/04/28 01:19:21;;;;;;;45.30;21.92;;;230.60;2252.80;;;;;;5035975;28;20372;-71
2023/04/28 01:21:47;;;;;;;49.13;22.75;;;230.70;2252.80;;;;;;5035929;28;20072;-71
2023/04/28 01:24:13;;;;;;;27.58;13.93;;;230.60;2252.80;;;;;;5035706;28;20017;-70
2023/04/28 01:26:39;;;;;;;26.70;12.10;;;230.60;2252.80;;;;;;5035406;28;20075;-71
2023/04/28 01:29:04;;;;;;;20.88;11.52;;;230.50;2252.80;;;;;;5036015;28;20029;-71
2023/04/28 01:31:30;;;;;;;;;;;230.50;2252.80;;;;;;5036044;28;20083;-71
2023/04/28 01:33:56;;;;;;;21.80;10.85;;;230.50;2252.80;;;;;;5035594;28;19963;-71
2023/04/28 01:36:22;;;;;;;27.73;12.07;;;230.40;2252.80;;;;;;5035567;28;20473;-72
2023/04/28 01:38:49;;;;;;;18.95;11.15;;;230.40;2252.80;;;;;;5035632;28;20025;-71
2023/04/28 01:41:15;;;;;;;21.58;12.35;;;230.50;2252.80;;;;;;5035538;28;20028;-71
2023/04/28 01:43:42;;;;;;;24.00;12.23;;;230.50;2252.80;;;;;;5035443;28;20022;-75
2023/04/28 01:46:11;;;;;;;20.25;10.02;;;230.40;2252.80;;;;;;5035245;28;20379;-75
2023/04/28 01:48:36;;;;;;;18.23;11.07;;;230.40;2252.80;;;;;;5035663;28;20024;-73
2023/04/28 01:51:02;;;;;;;17.23;10.02;;;230.40;2252.80;;;;;;5035561;28;20022;-78
2023/04/28 01:53:28;;;;;;;;;;;230.40;2252.80;;;;;;5035518;28;20115;-72
2023/04/28 01:55:54;;;;;;;19.23;10.25;;;230.40;2252.80;;;;;;5035277;28;19909;-72
2023/04/28 01:58:19;;;;;;;;;;;230.40;2252.80;;;;;;5035739;28;20025;-71
2023/04/28 02:00:46;;;;;;;15.98;9.60;;;205.70;2252.80;;;;;;5035047;28;19905;-74
2023/04/28 02:03:12;;;;;;;17.02;10.23;;;205.70;2252.80;;;;;;5035110;28;20025;-71
2023/04/28 02:05:38;;;;;;;24.65;10.85;;;230.40;2252.80;;;;;;5035320;28;20373;-71
2023/04/28 02:08:03;;;;;;;16.02;10.00;;;230.40;2252.80;;;;;;5035147;28;20022;-71
2023/04/28 02:10:29;;;;;;;;;;;230.40;2252.80;;;;;;5035682;28;20420;-70
2023/04/28 02:12:55;;;;;;;14.68;8.70;;;230.40;2252.80;;;;;;5034880;28;19920;-71
2023/04/28 02:15:20;;;;;;;;;;;205.70;2252.80;;;;;;5035191;28;20127;-71
2023/04/28 02:17:46;;;;;;;16.65;8.32;;;205.70;2252.80;;;;;;5034842;28;19913;-71
2023/04/28 02:20:13;;;;;;;18.00;9.70;;;205.70;2252.80;;;;;;5034964;28;20044;-70
2023/04/28 02:22:39;;;;;;;13.07;8.70;;;205.70;2252.80;;;;;;5034657;28;20026;-70
2023/04/28 02:25:05;;;;;;;14.68;9.25;;;205.70;2252.80;;;;;;5034774;28;20376;-70
2023/04/28 02:27:31;;;;;;;15.57;9.20;;;205.70;2252.80;;;;;;5034874;28;20028;-71
2023/04/28 02:29:57;;;;;;;14.82;9.15;;;205.70;2252.80;;;;;;5034557;28;20437;-71
2023/04/28 02:32:23;;;;;;;14.05;9.52;;;205.70;2252.80;;;;;;5034339;28;20057;-71
2023/04/28 02:34:52;;;;;;;;;;;205.70;2252.80;;;;;;5035197;28;20466;-70
2023/04/28 02:37:18;;;;;;;15.98;9.57;;;205.70;2252.80;;;;;;5033655;28;20329;-70
2023/04/28 02:39:43;;;;;;;18.83;9.60;;;205.60;2252.80;;;;;;5034673;28;20029;-71
2023/04/28 02:42:09;;;;;;;;;;;205.60;2252.80;;;;;;5034821;28;20511;-71
2023/04/28 02:44:34;;;;;;;48.20;17.88;;;205.60;2252.80;;;;;;5034325;28;19905;-72
2023/04/28 02:47:00;;;;;;;21.17;10.63;;;205.50;2252.80;;;;;;5034119;28;20053;-70
2023/04/28 02:49:26;;;;;;;;;;;205.50;2252.80;;;;;;5034850;28;20048;-70
2023/04/28 02:51:51;;;;;;;17.08;9.70;;;205.50;2252.80;;;;;;5033995;28;19921;-71
2023/04/28 02:54:26;;;;;;;16.27;8.80;;;205.40;2252.80;;;;;;5034060;28;20405;-70
2023/04/28 02:56:55;;;;;;;20.58;10.07;;;205.40;2252.80;;;;;;5034043;28;20547;-71
2023/04/28 02:59:21;;;;;;;25.10;11.30;;;205.40;2252.80;;;;;;5034143;28;20113;-71
2023/04/28 03:01:47;;;;;;;16.77;8.90;;;205.50;2252.80;;;;;;5033434;28;20033;-71
2023/04/28 03:04:14;;;;;;;18.77;9.27;;;205.50;2252.80;;;;;;5033326;28;20389;-71
2023/04/28 03:06:40;;;;;;;17.50;9.77;;;205.50;2252.80;;;;;;5033304;28;20032;-71
2023/04/28 03:09:06;;;;;;;18.67;9.63;;;205.50;2252.80;;;;;;5033300;28;20474;-77
2023/04/28 03:11:32;;;;;;;15.07;8.88;;;205.40;2252.80;;;;;;5033397;28;20423;-74
2023/04/28 03:13:58;;;;;;;;;;;205.60;2252.80;;;;;;5033497;28;20037;-71
2023/04/28 03:16:23;;;;;;;17.65;8.55;;;205.50;2252.80;;;;;;5032963;28;19912;-72
2023/04/28 03:18:49;;;;;;;;;;;205.50;2252.80;;;;;;5033577;28;20041;-71
2023/04/28 03:21:15;;;;;;;14.93;8.73;;;205.40;2252.80;;;;;;5033095;28;19952;-73
2023/04/28 03:23:40;;;;;;;;;;;205.30;2252.80;;;;;;5033421;28;20029;-71
2023/04/28 03:26:06;;;;;;;14.57;9.13;;;205.30;2252.80;;;;;;5033082;28;20357;-71
2023/04/28 03:28:31;;;;;;;13.27;7.95;;;205.30;2252.80;;;;;;5032930;28;20488;-71
2023/04/28 03:30:57;;;;;;;;;;;205.20;2252.80;;;;;;5033266;28;20026;-72
2023/04/28 03:33:23;;;;;;;12.23;8.18;;;205.10;2252.80;;;;;;5032738;28;19971;-71
2023/04/28 03:35:48;;;;;;;;;;;205.10;2252.80;;;;;;5033320;28;20022;-71
2023/04/28 03:38:14;;;;;;;14.88;8.75;;;205.10;2252.80;;;;;;5032830;28;19909;-71
2023/04/28 03:40:40;;;;;;;;;;;205.20;2252.80;;;;;;5033113;28;20013;-71
2023/04/28 03:43:06;;;;;;;17.63;8.75;;;204.80;2252.80;;;;;;5032745;28;19909;-71
2023/04/28 03:45:32;;;;;;;15.32;8.70;;;180.10;2252.80;;;;;;5032701;28;20097;-71
2023/04/28 03:47:58;;;;;;;15.00;8.75;;;179.90;2252.80;;;;;;5032432;28;20103;-71
2023/04/28 03:50:23;;;;;;;;;;;179.80;2252.80;;;;;;5033154;28;20068;-70
2023/04/28 03:52:49;;;;;;;13.40;8.13;;;179.70;2252.80;;;;;;5032373;28;20050;-71
2023/04/28 03:55:14;;;;;;;;;;;179.60;2252.80;;;;;;5033080;28;20030;-71
2023/04/28 03:57:40;;;;;;;17.73;9.23;;;179.50;2252.80;;;;;;5032591;28;19905;-71
2023/04/28 04:00:06;;;;;;;;;;;179.50;2252.80;;;;;;5033041;28;20385;-71
2023/04/28 04:02:32;;;;;;;16.10;9.82;;;179.50;2252.80;;;;;;5032388;28;19951;-77
2023/04/28 04:04:57;;;;;;;;;;;179.50;2252.80;;;;;;5033205;28;20026;-70
2023/04/28 04:07:23;;;;;;;22.42;10.93;;;179.30;2252.80;;;;;;5032558;28;20311;-77
2023/04/28 04:09:49;;;;;;;;;;;179.20;2252.80;;;;;;5032955;28;20032;-76
2023/04/28 04:12:14;;;;;;;19.38;9.13;;;179.20;2252.80;;;;;;5030999;28;20360;-72
2023/04/28 04:14:40;;;;;;;;;;;154.30;2252.80;;;;;;5032790;28;20457;-71
2023/04/28 04:17:06;;;;;;;14.80;8.00;;;154.20;2252.80;;;;;;5032368;28;19913;-71
2023/04/28 04:19:32;;;;;;;;;;;154.30;2252.80;;;;;;5032698;28;20052;-74
2023/04/28 04:21:57;;;;;;;17.52;8.30;;;154.20;2252.80;;;;;;5032272;28;20003;-72
2023/04/28 04:24:23;;;;;;;;;;;154.30;2252.80;;;;;;5032850;28;20030;-75
2023/04/28 04:26:48;;;;;;;14.18;8.63;;;154.10;2252.80;;;;;;5032480;28;19912;-71
2023/04/28 04:29:14;;;;;;;;;;;154.00;2252.80;;;;;;5032872;28;20025;-73
2023/04/28 04:31:40;;;;;;;16.77;9.15;;;153.90;2252.80;;;;;;5032206;28;19905;-74
2023/04/28 04:34:06;;;;;;;;;;;154.00;2252.80;;;;;;5032639;28;20481;-71
2023/04/28 04:36:32;;;;;;;15.60;8.90;;;154.00;2252.80;;;;;;5032374;28;19945;-72
2023/04/28 04:38:58;;;;;;;33.17;11.18;;;154.10;2252.80;;;;;;5032425;28;20033;-77
2023/04/28 04:41:24;;;;;;;;;;;154.30;2252.80;;;;;;5032952;28;20021;-71
2023/04/28 04:43:50;;;;;;;20.90;10.70;;;154.50;2252.80;;;;;;5032258;28;19909;-71
2023/04/28 04:46:16;;;;;;;;;;;179.30;2252.80;;;;;;5032706;28;20030;-71
2023/04/28 04:48:42;;;;;;;19.70;11.35;;;179.40;2252.80;;;;;;5032118;28;19951;-71
2023/04/28 04:51:07;;;;;;;;;;;179.50;2252.80;;;;;;5032612;28;20500;-70
2023/04/28 04:53:33;;;;;;;15.98;9.63;;;179.70;2252.80;;;;;;5031842;28;19921;-71
2023/04/28 04:55:59;;;;;;;;;;;179.70;2252.80;;;;;;5026792;28;20022;-71
2023/04/28 04:58:24;;;;;;;17.92;11.10;;;179.80;2252.80;;;;;;5014252;28;19913;-74
2023/04/28 05:00:50;;;;;;;;;;;179.90;2252.80;;;;;;5014094;28;20018;-72
2023/04/28 05:03:16;;;;;;;19.02;10.13;;;180.10;2252.80;;;;;;5017771;28;19992;-71
2023/04/28 05:05:41;;;;;;;;;;;204.80;2252.80;;;;;;5018101;28;20041;-71
2023/04/28 05:08:07;;;;;;;26.38;11.45;;;205.00;2252.80;;;;;;5017645;28;19977;-71
2023/04/28 05:10:33;;;;;;;;;;;205.10;2252.80;;;;;;5018190;28;20025;-71
2023/04/28 05:12:58;;;;;;;23.40;10.23;;;205.20;2252.80;;;;;;5023021;28;19955;-78
2023/04/28 05:15:24;;;;;;;;;;;205.40;2252.80;;;;;;5015171;28;20101;-71
2023/04/28 05:17:50;;;;;;;20.33;9.73;;;205.50;2252.80;;;;;;5020201;28;19905;-71
2023/04/28 05:20:15;;;;;;;;;;;205.70;2252.80;;;;;;5017891;28;20384;-71
2023/04/28 05:22:41;;;;;;;21.85;11.05;;;230.40;2252.80;;;;;;5022913;28;20250;-77
2023/04/28 05:25:07;;;;;;;;;;;230.60;2252.80;;;;;;5017641;28;20100;-71
2023/04/28 05:27:32;;;;;;;18.50;9.48;;;230.70;2252.80;;;;;;5026148;28;19912;-75
2023/04/28 05:29:58;;;;;;;;;;;230.90;2252.80;;;;;;5030608;28;20022;-72
2023/04/28 05:32:24;;;;;;;17.27;9.52;;;231.00;2252.80;;;;;;5031434;28;19924;-70
2023/04/28 05:34:50;;;;;;;18.00;9.27;;;231.20;2252.80;;;;;;5025453;28;20378;-75
2023/04/28 05:37:15;;;;;;;;;;;231.20;2252.80;;;;;;5029533;28;20067;-71
2023/04/28 05:39:41;;;;;;;12.23;7.78;;;256.00;2252.80;;;;;;5022713;28;19912;-72
2023/04/28 05:42:07;;;;;;;;;;;256.20;2252.80;;;;;;5034117;28;20035;-71
2023/04/28 05:44:32;;;;;;;16.70;7.30;;;256.40;2252.80;;;;;;5028387;28;19906;-74
2023/04/28 05:46:58;;;;;;;;;;;256.50;2252.80;;;;;;5032465;28;20025;-73
2023/04/28 05:49:23;;;;;;;12.82;6.45;;;256.60;2252.80;;;;;;5024209;28;19947;-74
2023/04/28 05:51:49;;;;;;;;;;;256.80;2252.80;;;;;;5031334;28;20048;-71
2023/04/28 05:54:15;;;;;;;12.23;6.53;;;256.90;2252.80;;;;;;5031787;28;19971;-70
2023/04/28 05:56:40;;;;;;;;;;;281.60;2278.40;;;;;;5032012;28;20456;-72
2023/04/28 05:59:06;;;;;;;12.40;4.05;;;281.70;2278.40;;;;;;5033890;28;19966;-71
2023/04/28 06:01:32;;;;;;;;;;;281.80;2124.80;;;;;;5027188;28;20096;-72
2023/04/28 06:03:58;;;;;;;7.20;4.75;;;282.00;2176.00;;;;;;5025783;28;19905;-72
2023/04/28 06:06:24;;;;;;;10.20;5.25;;;282.20;2278.40;;;;;;5032397;28;20017;-72
2023/04/28 06:08:50;;;;;;;10.65;4.82;;;282.30;2278.40;;;;;;5023707;28;20071;-73
2023/04/28 06:11:18;;;;;;;9.98;5.38;;;282.30;2124.80;;;;;;5029574;28;20631;-71
2023/04/28 06:13:43;;;;;;;10.73;5.85;;;282.50;2227.20;;;;;;5028421;28;20498;-71
2023/04/28 06:16:09;;;;;;;9.80;4.53;;;282.50;2278.40;;;;;;5030425;28;20113;-71
2023/04/28 06:18:35;;;;;;;10.00;4.00;;;307.20;2227.20;;;;;;5032231;28;20021;-71
2023/04/28 06:21:01;;;;;;;9.80;4.80;;;307.30;2150.40;;;;;;5030736;28;20079;-71
2023/04/28 06:23:26;;;;;;;15.40;4.80;;;307.40;2124.80;;;;;;5023225;28;20531;-71
2023/04/28 06:25:52;;;;;;;9.55;4.13;;;307.50;2124.80;;;;;;5025922;28;20022;-70
2023/04/28 06:28:18;;;;;;;;;;;307.60;1945.60;;;;;;5027102;28;20033;-75
2023/04/28 06:30:43;;;;;;;8.75;4.22;;;307.80;1996.80;;;;;;5028985;28;19913;-74
2023/04/28 06:33:09;;;;;;;;;;;307.90;2022.40;;;;;;5023544;28;20385;-71
2023/04/28 06:35:37;;;;;;;9.98;4.15;;;307.90;1920.00;;;;;;5029223;28;20007;-72
2023/04/28 06:38:03;;;;;;;9.43;4.47;;;308.10;1971.20;;;;;;5029034;28;20026;-71
2023/04/28 06:40:29;;;;;;;7.85;4.65;;;308.10;1971.20;;;;;;5025465;28;20408;-72
2023/04/28 06:42:55;;;;;;;12.57;3.97;;;332.90;1996.80;;;;;;5029358;28;20112;-73
2023/04/28 06:45:20;;;;;;;9.90;4.10;;;332.90;1894.40;;;;;;5028650;28;20469;-71
2023/04/28 06:47:46;;;;;;;9.27;4.13;;;333.10;1868.80;;;;;;5022185;28;20053;-73
2023/04/28 06:50:12;;;;;;;8.73;3.60;;;333.30;1817.60;;;;;;5031365;28;20112;-71
2023/04/28 06:52:38;;;;;;;7.57;3.25;;;333.40;1792.00;;;;;;5024327;28;20045;-71
2023/04/28 06:55:06;;;;;;;6.85;3.65;;;333.60;1766.40;;;;;;5027277;28;20121;-72
2023/04/28 06:57:32;;;;;;;11.73;3.33;;;333.70;1766.40;;;;;;5026105;28;20492;-71
2023/04/28 06:59:57;;;;;;;12.13;3.20;;;358.40;1689.60;;;;;;5029211;28;20025;-72
2023/04/28 07:02:23;;;;;;;10.52;3.20;;;358.60;1664.00;;;;;;5024251;28;20030;-73
2023/04/28 07:04:49;;;;;;;21.73;3.42;;;358.80;1612.80;;;;;;5039501;28;20030;-75
2023/04/28 07:07:14;;;;;;;6.45;3.90;;;358.70;1510.40;;;;;;5030382;28;20026;-72
2023/04/28 07:09:40;;;;;;;8.63;3.42;;;358.90;1536.00;;;;;;5027248;28;20423;-74
2023/04/28 07:12:06;;;;;;;7.35;3.30;;;358.90;1561.60;;;;;;5031500;28;20481;-72
2023/04/28 07:14:32;;;;;;;7.97;3.20;;;359.00;1536.00;;;;;;5026509;28;20029;-72
2023/04/28 07:16:58;;;;;;;13.57;3.85;;;359.20;1587.20;;;;;;5026599;28;20076;-75
2023/04/28 07:19:24;;;;;;;7.35;3.53;;;384.00;1536.00;;;;;;5032664;28;20176;-75
2023/04/28 07:21:50;;;;;;;7.68;3.10;;;384.10;1510.40;;;;;;5032306;28;20048;-74
2023/04/28 07:24:16;;;;;;;10.70;3.47;;;384.20;1510.40;;;;;;5025830;28;20021;-75
2023/04/28 07:26:41;;;;;;;5.72;3.00;;;384.30;1484.80;;;;;;5028886;28;20497;-74
2023/04/28 07:29:12;;;;;;;5.30;2.88;;;384.30;1484.80;;;;;;5027437;28;20366;-74
2023/04/28 07:31:38;;;;;;;7.55;2.83;;;384.30;1484.80;;;;;;5027477;28;20025;-74
2023/04/28 07:34:03;;;;;;;6.47;3.28;;;384.30;1484.80;;;;;;5031987;28;20032;-72
2023/04/28 07:36:29;;;;;;;6.63;3.10;;;384.30;1382.40;;;;;;5023985;28;20088;-75
2023/04/28 07:38:55;;;;;;;5.40;2.70;;;384.40;1356.80;;;;;;5023884;28;20080;-73
2023/04/28 07:41:21;;;;;;;9.73;3.15;;;384.50;1331.20;;;;;;5028285;28;20014;-72
2023/04/28 07:43:47;;;;;;;5.82;3.22;;;384.50;1356.80;;;;;;5023724;28;20021;-70
2023/04/28 07:46:13;;;;;;;5.28;2.83;;;384.70;1331.20;;;;;;5022790;28;20523;-72
2023/04/28 07:48:39;;;;;;;12.68;2.92;;;384.70;1382.40;;;;;;5025924;28;20057;-72
2023/04/28 07:51:04;;;;;;;6.90;2.65;;;384.90;1356.80;;;;;;5030736;28;20136;-72
2023/04/28 07:53:30;;;;;;;12.95;3.17;;;384.80;1382.40;;;;;;5026610;28;20049;-71
2023/04/28 07:55:56;;;;;;;7.03;3.55;;;384.90;1382.40;;;;;;5025860;28;20018;-73
2023/04/28 07:58:22;;;;;;;6.40;2.53;;;384.90;1331.20;;;;;;5023446;28;20025;-74
2023/04/28 08:00:47;;;;;;;7.15;2.92;;;384.90;1280.00;;;;;;5030441;28;20155;-73
2023/04/28 08:03:13;;;;;;;6.05;2.83;;;384.90;1280.00;;;;;;5024285;28;20018;-73
2023/04/28 08:05:39;;;;;;;4.65;2.70;;;384.90;1305.60;;;;;;5025739;28;20022;-74
2023/04/28 08:08:05;;;;;;;10.27;2.88;;;384.90;1305.60;;;;;;5029101;28;20088;-74
2023/04/28 08:10:31;;;;;;;7.88;2.72;;;384.90;1356.80;;;;;;5027473;28;20029;-75
2023/04/28 08:12:58;;;;;;;5.07;2.58;;;384.70;1305.60;;;;;;5026764;28;20033;-76
2023/04/28 08:15:24;;;;;;;8.57;2.83;;;384.70;1305.60;;;;;;5032147;28;20029;-74
2023/04/28 08:17:51;;;;;;;6.20;2.85;;;384.90;1331.20;;;;;;5030256;28;20025;-75
2023/04/28 08:20:18;;;;;;;8.00;3.50;;;409.60;1382.40;;;;;;5031144;28;20380;-73
2023/04/28 08:22:47;;;;;;;4.57;2.30;;;384.90;1305.60;;;;;;5030378;28;20477;-75
2023/04/28 08:25:13;;;;;;;8.10;3.20;;;384.90;1254.40;;;;;;5023307;28;20055;-74
2023/04/28 08:27:38;;;;;;;6.63;3.00;;;384.90;1254.40;;;;;;5024552;28;20468;-73
2023/04/28 08:30:08;;;;;;;4.78;2.47;;;409.60;1305.60;;;;;;5023483;28;20109;-71
2023/04/28 08:32:34;;;;;;;7.50;2.85;;;409.60;1305.60;;;;;;5022880;28;20473;-74
2023/04/28 08:35:00;;;;;;;5.97;2.47;;;409.60;1254.40;;;;;;5027347;28;20045;-72
2023/04/28 08:37:26;;;;;;;9.27;3.33;;;409.70;1254.40;;;;;;5032164;28;20025;-73
2023/04/28 08:40:00;;;;;;;8.55;2.72;;;409.80;1280.00;;;;;;5034615;28;20033;-74
2023/04/28 08:42:28;;;;;;;10.45;2.80;;;409.80;1280.00;;;;;;5025159;28;20397;-72
2023/04/28 08:44:58;;;;;;;4.07;2.20;;;409.90;1254.40;;;;;;5032287;28;20026;-73
2023/04/28 08:47:38;;;;;;;4.55;2.50;;;409.90;1203.20;;;;;;5029189;28;20022;-74
2023/04/28 08:50:06;;;;;;;7.38;2.78;;;409.90;1203.20;;;;;;5029824;28;20464;-73
2023/04/28 08:52:32;;;;;;;7.00;2.58;;;410.00;1254.40;;;;;;5034051;28;20060;-74
2023/04/28 08:55:00;;;;;;;6.57;2.70;;;410.10;1280.00;;;;;;5035376;28;20032;-71
2023/04/28 08:57:29;;;;;;;5.15;2.53;;;410.10;1228.80;;;;;;5029148;28;20397;-75
2023/04/28 08:59:55;;;;;;;23.90;8.63;;;410.20;1177.60;;;;;;5024971;28;20105;-72
2023/04/28 09:02:21;;;;;;;5.22;3.00;;;410.10;1203.20;;;;;;5030024;28;20056;-72
2023/04/28 09:04:47;;;;;;;6.68;2.75;;;410.20;1177.60;;;;;;5024476;28;20103;-73
2023/04/28 09:07:13;;;;;;;6.00;2.65;;;410.30;1177.60;;;;;;5030597;28;20033;-73
2023/04/28 09:09:39;;;;;;;30.50;9.02;;;410.30;1177.60;;;;;;5029371;28;20428;-72
2023/04/28 09:12:06;;;;;;;7.90;2.92;;;410.40;1203.20;;;;;;5032848;28;20116;-77
2023/04/28 09:14:34;;;;;;;7.85;3.15;;;410.40;1203.20;;;;;;5024886;28;20041;-74
2023/04/28 09:17:01;;;;;;;9.43;3.42;;;410.30;1203.20;;;;;;5025007;28;20389;-71
2023/04/28 09:19:35;;;;;;;5.70;2.60;;;410.50;1177.60;;;;;;5030581;28;20420;-70
2023/04/28 09:22:01;;;;;;;6.85;3.10;;;435.20;1177.60;;;;;;5022394;28;20035;-71
2023/04/28 09:24:37;;;;;;;6.45;3.15;;;435.30;1177.60;;;;;;5034184;28;20022;-71
2023/04/28 09:27:04;;;;;;;7.18;2.97;;;435.40;1177.60;;;;;;5030991;28;20456;-71
2023/04/28 09:29:31;;;;;;;6.78;2.40;;;435.50;1177.60;;;;;;5029032;28;20028;-70
2023/04/28 09:32:16;;;;;;;9.18;3.00;;;435.60;1126.40;;;;;;5030785;28;20384;-70
2023/04/28 09:34:47;;;;;;;6.03;2.70;;;435.80;1126.40;;;;;;5029556;28;20029;-69
2023/04/28 09:37:21;;;;;;;8.57;3.33;;;435.90;1152.00;;;;;;5028128;28;20037;-70
2023/04/28 09:39:49;;;;;;;6.80;2.70;;;;;;;;;;5023920;28;20022;-70
2023/04/28 09:42:37;;;;;;;3.80;2.22;;;436.10;1100.80;;;;;;5029562;28;20030;-70
2023/04/28 09:45:04;;;;;;;5.55;2.53;;;460.80;1126.40;;;;;;5031827;28;20425;-69
2023/04/28 09:47:32;;;;;;;6.70;2.97;;;460.80;1126.40;;;;;;5029843;28;20528;-73
2023/04/28 09:50:00;;;;;;;5.95;3.05;;;461.10;1100.80;;;;;;5031735;28;20017;-69
2023/04/28 09:52:26;;;;;;;6.32;2.40;;;461.20;1100.80;;;;;;5033304;28;20091;-72
2023/04/28 09:54:54;;;;;;;8.23;2.60;;;460.90;1075.20;;;;;;5030065;28;20424;-70
2023/04/28 09:57:21;;;;;;;4.43;2.15;;;461.40;1126.40;;;;;;5026682;28;20032;-74
2023/04/28 09:59:48;;;;;;;4.90;2.38;;;461.20;1152.00;;;;;;5028578;28;20022;-77
2023/04/28 10:02:16;;;;;;;6.15;2.42;;;461.10;1126.40;;;;;;5026173;28;20032;-70
2023/04/28 10:04:45;;;;;;;11.60;3.00;;;461.20;1126.40;;;;;;5029492;28;20064;-70
2023/04/28 10:07:13;;;;;;;8.75;2.90;;;461.40;1126.40;;;;;;5032655;28;20026;-70
2023/04/28 10:09:43;;;;;;;7.45;2.35;;;486.40;1100.80;;;;;;5023095;28;20062;-71
2023/04/28 10:12:13;;;;;;;9.75;3.08;;;486.70;1024.00;;;;;;5024395;28;20041;-74
2023/04/28 10:14:39;;;;;;;7.80;3.60;;;486.70;1024.00;;;;;;5027951;28;20465;-71
2023/04/28 10:17:06;;;;;;;5.78;2.50;;;486.80;1049.60;;;;;;5026479;28;20033;-77
2023/04/28 10:19:33;;;;;;;7.53;2.50;;;486.90;1049.60;;;;;;5033701;28;20053;-73
2023/04/28 10:22:17;;;;;;;6.95;2.17;;;486.90;1049.60;;;;;;5025357;28;20484;-71
2023/04/28 10:25:07;;;;;;;7.65;2.63;;;486.90;1075.20;;;;;;5033245;28;20021;-71
2023/04/28 10:27:34;;;;;;;3.80;1.90;;;486.80;1049.60;;;;;;5026909;28;20568;-73
2023/04/28 10:30:17;;;;;;;4.45;2.03;;;486.90;998.40;;;;;;5024826;28;20480;-73
2023/04/28 10:32:44;;;;;;;5.78;2.80;;;486.90;1024.00;;;;;;5022477;28;20025;-70
2023/04/28 10:35:29;;;;;;;7.20;2.60;;;487.10;998.40;;;;;;5029447;28;20117;-69
2023/04/28 10:38:13;;;;;;;6.47;2.72;;;487.20;1049.60;;;;;;5019869;28;20112;-70
2023/04/28 10:40:52;;;;;;;6.00;2.30;;;486.90;1024.00;;;;;;5028136;28;20038;-70
2023/04/28 10:43:24;;;;;;;4.32;2.22;;;512.10;972.80;;;;;;5022226;28;20021;-69
2023/04/28 10:45:52;;;;;;;4.25;2.10;;;512.00;998.40;;;;;;5030786;28;20021;-72
2023/04/28 10:48:19;;;;;;;7.82;2.75;;;512.30;972.80;;;;;;5030767;28;20034;-73
2023/04/28 10:51:06;;;;;;;4.45;2.35;;;512.30;1024.00;;;;;;5032453;28;20096;-70
2023/04/28 10:53:48;;;;;;;8.75;2.53;;;512.40;1024.00;;;;;;5029377;28;20375;-70
2023/04/28 10:56:18;;;;;;;10.52;2.55;;;512.60;1024.00;;;;;;5024462;28;20429;-70
2023/04/28 10:58:49;;;;;;;5.22;2.60;;;512.40;998.40;;;;;;5022469;28;20033;-70
2023/04/28 11:01:20;;;;;;;5.03;2.45;;;537.60;998.40;;;;;;5025791;28;20528;-72
2023/04/28 11:03:46;;;;;;;7.20;2.80;;;512.60;972.80;;;;;;5023923;28;20033;-70
2023/04/28 11:06:33;;;;;;;5.45;2.33;;;512.90;921.60;;;;;;5029885;28;20022;-71
2023/04/28 11:09:00;;;;;;;5.97;2.83;;;537.70;921.60;;;;;;5027893;28;20109;-71
2023/04/28 11:11:30;;;;;;;4.43;2.42;;;538.00;896.00;;;;;;5022559;28;20013;-71
2023/04/28 11:14:15;;;;;;;8.57;3.72;;;537.80;896.00;;;;;;5027566;28;20037;-71
2023/04/28 11:17:03;;;;;;;6.68;2.47;;;537.70;921.60;;;;;;5028530;28;20017;-71
2023/04/28 11:19:35;;;;;;;6.78;2.53;;;512.80;947.20;;;;;;5022611;28;20021;-70
2023/04/28 11:22:14;;;;;;;6.22;3.03;;;537.70;921.60;;;;;;5026968;28;20032;-71
2023/04/28 11:24:40;;;;;;;8.50;2.58;;;538.00;896.00;;;;;;5017364;28;20022;-72
2023/04/28 11:27:05;;;;;;;6.97;2.33;;;538.00;921.60;;;;;;5024629;28;20079;-72
2023/04/28 11:29:38;;;;;;;5.20;2.55;;;537.80;972.80;;;;;;5030441;28;20473;-72
2023/04/28 11:32:05;;;;;;;7.47;2.78;;;538.00;947.20;;;;;;5026014;28;20025;-71
2023/04/28 11:34:31;;;;;;;5.68;2.45;;;538.20;972.80;;;;;;5025386;28;20040;-77
2023/04/28 11:36:57;;;;;;;6.20;2.38;;;538.20;947.20;;;;;;5027042;28;20469;-71
2023/04/28 11:39:31;;;;;;;14.13;2.60;;;538.10;921.60;;;;;;5030128;28;20031;-74
2023/04/28 11:41:58;;;;;;;5.10;2.47;;;538.20;947.20;;;;;;5030072;28;20025;-72
2023/04/28 11:44:28;;;;;;;6.82;3.10;;;538.50;947.20;;;;;;5026283;28;20489;-72
2023/04/28 11:46:59;;;;;;;6.60;2.80;;;563.20;947.20;;;;;;5025224;28;20025;-77
2023/04/28 11:49:50;;;;;;;4.35;2.03;;;538.50;896.00;;;;;;5021821;28;20036;-77
2023/04/28 11:52:16;;;;;;;8.13;2.53;;;538.40;921.60;;;;;;5023567;28;20115;-71
2023/04/28 11:54:42;;;;;;;7.72;2.83;;;563.30;972.80;;;;;;5032291;28;20505;-72
2023/04/28 11:57:17;;;;;;;8.63;2.90;;;538.50;972.80;;;;;;5031673;28;20025;-71
2023/04/28 11:59:42;;;;;;;5.80;2.70;;;537.80;947.20;;;;;;5028715;28;20025;-70
2023/04/28 12:02:08;;;;;;;5.30;2.90;;;538.40;921.60;;;;;;5026093;28;20028;-72
2023/04/28 12:04:39;;;;;;;7.90;2.85;;;538.40;896.00;;;;;;5025740;28;20026;-70
2023/04/28 12:07:18;;;;;;;8.35;2.47;;;563.40;921.60;;;;;;5027933;28;20069;-75
2023/04/28 12:10:08;;;;;;;7.35;2.80;;;563.20;972.80;;;;;;5028372;28;20057;-70
2023/04/28 12:12:34;;;;;;;7.18;2.92;;;538.50;998.40;;;;;;5035669;28;20523;-70
2023/04/28 12:15:05;;;;;;;6.53;3.00;;;563.20;1024.00;;;;;;5029610;28;20041;-72
2023/04/28 12:17:34;;;;;;;5.93;2.50;;;538.00;972.80;;;;;;5026888;28;20092;-70
2023/04/28 12:20:02;;;;;;;7.65;3.55;;;537.80;998.40;;;;;;5030165;28;20392;-72
2023/04/28 12:22:29;;;;;;;8.27;2.35;;;537.80;972.80;;;;;;5031468;28;20029;-70
2023/04/28 12:25:03;;;;;;;4.22;2.47;;;538.20;972.80;;;;;;5021023;28;20084;-71
2023/04/28 12:27:30;;;;;;;4.90;2.67;;;538.20;947.20;;;;;;5034833;28;20092;-71